Zenken Maru — JG5556 — position and weather

sailwx.info

Track history (hours):
 
Tides and Currents Weather Stations Pressure Air Temp Water Temp Dewpoint Dewpoint Depression Visibility Wind Speed Wind Dir Waves Ship Positions

Zenken Maru

Last reported at 2014-Nov-27 23:31 UTC. Time now 2014-Nov-28 00:18 UTC.
Position N 35°21' E 139°41'.

Length 98 m; draft 7.2 m.

Type: Cargo ship. MMSI: 431100955.

Date/timePositionNaut miles runAvg speedWind from/ knotsBaromVisibWave heightAir tempDewpointWater temp
2014-Nov-27 23:31N 35°21' E 139°41'0 0.1
2014-Nov-27 22:31N 35°21' E 139°41'0 0.0
2014-Nov-27 21:31N 35°21' E 139°41'0 0.1
2014-Nov-27 20:31N 35°21' E 139°41'0 0.0
2014-Nov-27 19:28N 35°21' E 139°41'0 0.0
2014-Nov-27 18:31N 35°21' E 139°41'0 0.1
2014-Nov-27 17:31N 35°21' E 139°41'0 0.0
2014-Nov-27 16:31N 35°21' E 139°41'0 0.0
2014-Nov-27 15:31N 35°21' E 139°41'0 0.1
2014-Nov-27 14:31N 35°21' E 139°41'0 0.0
2014-Nov-27 13:31N 35°21' E 139°41'0 0.0
2014-Nov-27 12:31N 35°21' E 139°41'0 0.0
2014-Nov-27 11:31N 35°21' E 139°41'0 0.0
2014-Nov-27 10:31N 35°21' E 139°41'0 0.0
2014-Nov-27 09:31N 35°21' E 139°41'0 0.0
2014-Nov-27 08:31N 35°21' E 139°41'0 0.0
2014-Nov-27 07:31N 35°21' E 139°41'0 0.0
2014-Nov-27 06:31N 35°21' E 139°41'0 0.0
2014-Nov-27 05:31N 35°21' E 139°41'0 0.1
2014-Nov-27 04:33N 35°21' E 139°41'3 2.6
2014-Nov-27 03:33N 35°23' E 139°39'0 0.0
2014-Nov-27 02:33N 35°23' E 139°39'0 0.0
2014-Nov-27 01:33N 35°23' E 139°39'0 0.0
2014-Nov-27 00:32N 35°23' E 139°39'0 0.0
2014-Nov-26 23:34N 35°23' E 139°39'0 0.4
2014-Nov-26 22:33N 35°23' E 139°40'3 2.8
2014-Nov-26 21:31N 35°21' E 139°41'0 0.1
2014-Nov-26 20:31N 35°21' E 139°41'0 0.1
2014-Nov-26 19:31N 35°21' E 139°41'0 0.0
2014-Nov-26 18:31N 35°21' E 139°41'0 0.1
2014-Nov-26 17:31N 35°21' E 139°41'0 0.0
2014-Nov-26 16:28N 35°21' E 139°41'0 0.0
2014-Nov-26 15:33N 35°21' E 139°41'0 0.0
2014-Nov-26 14:33N 35°21' E 139°41'0 0.0
2014-Nov-26 13:34N 35°21' E 139°41'0 0.0
2014-Nov-26 12:33N 35°21' E 139°41'0 0.0
2014-Nov-26 11:33N 35°21' E 139°41'0 0.0
2014-Nov-26 10:33N 35°21' E 139°41'0 0.0
2014-Nov-26 09:32N 35°21' E 139°41'0 0.0
2014-Nov-26 08:32N 35°21' E 139°41'0 0.0
2014-Nov-26 07:32N 35°21' E 139°41'0 0.0
2014-Nov-26 06:32N 35°21' E 139°41'0 0.0
2014-Nov-26 05:32N 35°21' E 139°41'0 0.0
2014-Nov-26 04:29N 35°21' E 139°41'0 0.0
2014-Nov-26 03:32N 35°21' E 139°41'0 0.0
2014-Nov-26 02:32N 35°21' E 139°41'0 0.0
2014-Nov-26 01:32N 35°21' E 139°41'0 0.0
2014-Nov-26 00:32N 35°21' E 139°41'0 0.0
2014-Nov-25 23:32N 35°21' E 139°41'0 0.0
2014-Nov-25 22:32N 35°21' E 139°41'0 0.1
2014-Nov-25 21:32N 35°21' E 139°41'0 0.0
2014-Nov-25 20:32N 35°21' E 139°41'4 4.3
2014-Nov-25 19:33N 35°18' E 139°45'1010.4
2014-Nov-25 18:33N 35°07' E 139°45'3 0.1
2014-Nov-24 07:20N 35°11' E 139°46'810.5
2014-Nov-24 06:33N 35°19' E 139°44'6 5.9
2014-Nov-24 05:33N 35°23' E 139°39'0 0.0
2014-Nov-24 04:32N 35°23' E 139°39'0 0.0
2014-Nov-24 03:32N 35°23' E 139°39'0 0.0
2014-Nov-24 02:32N 35°23' E 139°39'0 0.0
2014-Nov-24 01:31N 35°23' E 139°39'0 0.0
2014-Nov-24 00:32N 35°23' E 139°39'0 0.0
2014-Nov-23 23:32N 35°23' E 139°39'0 0.4
2014-Nov-23 22:33N 35°23' E 139°39'3 2.6
2014-Nov-23 21:33N 35°21' E 139°41'0 0.0
2014-Nov-23 20:33N 35°21' E 139°41'0 0.1
2014-Nov-23 19:33N 35°21' E 139°41'0 0.0
2014-Nov-23 18:27N 35°21' E 139°41'0 0.0
2014-Nov-23 17:33N 35°21' E 139°41'0 0.0
2014-Nov-23 16:33N 35°21' E 139°41'0 0.1
2014-Nov-23 15:33N 35°21' E 139°41'0 0.0
2014-Nov-23 14:33N 35°21' E 139°41'0 0.1
2014-Nov-23 13:33N 35°21' E 139°41'0 0.0
2014-Nov-23 12:33N 35°21' E 139°41'0 0.0
2014-Nov-23 11:33N 35°21' E 139°41'0 0.0
2014-Nov-23 10:33N 35°21' E 139°41'0 0.0
2014-Nov-23 09:33N 35°21' E 139°41'0 0.0
2014-Nov-23 08:30N 35°21' E 139°41'0 0.0
2014-Nov-23 07:33N 35°21' E 139°41'0 0.1
2014-Nov-23 06:33N 35°21' E 139°41'0 0.0
2014-Nov-23 05:33N 35°21' E 139°41'0 0.0
2014-Nov-23 04:33N 35°21' E 139°41'0 0.1
2014-Nov-23 03:33N 35°21' E 139°41'0 0.1
2014-Nov-23 02:33N 35°21' E 139°41'0 0.0
2014-Nov-23 01:33N 35°21' E 139°41'0 0.0
2014-Nov-23 00:33N 35°21' E 139°41'0 0.0
2014-Nov-22 23:33N 35°21' E 139°41'0 0.0
2014-Nov-22 22:33N 35°21' E 139°41'0 0.0
2014-Nov-22 21:30N 35°21' E 139°41'0 0.0
2014-Nov-22 20:33N 35°21' E 139°41'0 0.0
2014-Nov-22 19:33N 35°21' E 139°41'0 0.0
2014-Nov-22 18:30N 35°21' E 139°41'0 0.0
2014-Nov-22 17:30N 35°21' E 139°41'0 0.1
2014-Nov-22 16:33N 35°21' E 139°41'0 0.0
2014-Nov-22 15:30N 35°21' E 139°41'0 0.1
2014-Nov-22 14:33N 35°21' E 139°41'0 0.0
2014-Nov-22 13:33N 35°21' E 139°41'0 0.0
2014-Nov-22 12:33N 35°21' E 139°41'0 0.0
2014-Nov-22 11:33N 35°21' E 139°41'0 0.0
2014-Nov-22 10:33N 35°21' E 139°41'0 0.1
2014-Nov-22 09:33N 35°21' E 139°41'0 0.0
2014-Nov-22 08:33N 35°21' E 139°41'0 0.1
2014-Nov-22 07:33N 35°21' E 139°41'0 0.0
2014-Nov-22 06:21N 35°21' E 139°41'0 0.0
2014-Nov-22 05:21N 35°21' E 139°41'0 0.0
2014-Nov-22 04:33N 35°21' E 139°41'0 0.0
2014-Nov-22 03:32N 35°21' E 139°41'0 0.0
2014-Nov-22 02:33N 35°21' E 139°41'0 0.0
2014-Nov-22 01:33N 35°21' E 139°41'0 0.0
2014-Nov-22 00:32N 35°21' E 139°41'0 0.0
2014-Nov-21 23:32N 35°21' E 139°41'0 0.0
2014-Nov-21 22:33N 35°21' E 139°41'0 0.0
2014-Nov-21 21:32N 35°21' E 139°41'0 0.0
2014-Nov-21 20:33N 35°21' E 139°41'0 0.0
2014-Nov-21 19:32N 35°21' E 139°41'0 0.1
2014-Nov-21 18:32N 35°21' E 139°41'0 0.0
2014-Nov-21 17:33N 35°21' E 139°41'0 0.0
2014-Nov-21 16:32N 35°21' E 139°41'0 0.0
2014-Nov-21 15:32N 35°21' E 139°41'0 0.1
2014-Nov-21 14:32N 35°21' E 139°41'0 0.0
2014-Nov-21 13:32N 35°21' E 139°41'0 0.0
2014-Nov-21 12:32N 35°21' E 139°41'0 0.0
2014-Nov-21 11:32N 35°21' E 139°41'0 0.0
2014-Nov-21 10:32N 35°21' E 139°41'0 0.0
2014-Nov-21 09:32N 35°21' E 139°41'0 0.0
2014-Nov-21 08:32N 35°21' E 139°41'0 0.0
2014-Nov-21 07:32N 35°21' E 139°41'0 0.1
2014-Nov-21 06:32N 35°21' E 139°41'3 2.5
2014-Nov-21 05:31N 35°23' E 139°39'0 0.0
2014-Nov-21 04:31N 35°23' E 139°39'0 0.0
2014-Nov-21 03:31N 35°23' E 139°39'0 0.0
2014-Nov-21 02:31N 35°23' E 139°39'0 0.0
2014-Nov-21 01:31N 35°23' E 139°39'0 0.0
2014-Nov-21 00:31N 35°23' E 139°39'0 0.0
2014-Nov-20 23:31N 35°23' E 139°39'0 0.4
2014-Nov-20 22:33N 35°24' E 139°39'3 2.8
2014-Nov-20 21:32N 35°21' E 139°41'0 0.0
2014-Nov-20 20:32N 35°21' E 139°41'0 0.0
2014-Nov-20 19:32N 35°21' E 139°41'0 0.0
2014-Nov-20 18:32N 35°21' E 139°41'0 0.1
2014-Nov-20 17:32N 35°21' E 139°41'0 0.1
2014-Nov-20 16:32N 35°21' E 139°41'0 0.0
2014-Nov-20 15:32N 35°21' E 139°41'0 0.0
2014-Nov-20 14:32N 35°21' E 139°41'0 0.0
2014-Nov-20 13:32N 35°21' E 139°41'0 0.0
2014-Nov-20 12:32N 35°21' E 139°41'0 0.0
2014-Nov-20 11:32N 35°21' E 139°41'0 0.0
2014-Nov-20 10:32N 35°21' E 139°41'0 0.0
2014-Nov-20 09:32N 35°21' E 139°41'0 0.0
2014-Nov-20 08:29N 35°21' E 139°41'0 0.0
2014-Nov-20 07:32N 35°21' E 139°41'0 0.0
2014-Nov-20 06:32N 35°21' E 139°41'0 0.0
2014-Nov-20 05:29N 35°21' E 139°41'0 0.1
2014-Nov-20 04:32N 35°21' E 139°41'0 0.0
2014-Nov-20 03:32N 35°21' E 139°41'0 0.0
2014-Nov-20 02:32N 35°21' E 139°41'0 0.0
2014-Nov-20 01:32N 35°21' E 139°41'0 0.0
2014-Nov-20 00:32N 35°21' E 139°41'9 0.2
2014-Nov-18 08:23N 35°13' E 139°46'1011.9
2014-Nov-18 07:33N 35°22' E 139°41'2 2.0
2014-Nov-18 06:33N 35°23' E 139°39'0 0.0
2014-Nov-18 05:33N 35°23' E 139°39'0 0.0
2014-Nov-18 04:33N 35°23' E 139°39'0 0.0
2014-Nov-18 03:33N 35°23' E 139°39'0 0.0
2014-Nov-18 02:33N 35°23' E 139°39'0 0.0
2014-Nov-18 01:33N 35°23' E 139°39'0 0.0
2014-Nov-18 00:33N 35°23' E 139°39'0 0.0
2014-Nov-17 23:33N 35°23' E 139°39'  
Track history (hours):
 
Tides and Currents Weather Stations Pressure Air Temp Water Temp Dewpoint Dewpoint Depression Visibility Wind Speed Wind Dir Waves Ship Positions

Zenken Maru

Last reported at 2014-Nov-27 23:31 UTC. Time now 2014-Nov-28 00:18 UTC.
Position N 35°21' E 139°41'.

Length 98 m; draft 7.2 m.

Type: Cargo ship. MMSI: 431100955.

Date/timePositionNaut miles runAvg speedWind from/ knotsBaromVisibWave heightAir tempDewpointWater temp
2014-Nov-27 23:31N 35°21' E 139°41'0 0.1
2014-Nov-27 22:31N 35°21' E 139°41'0 0.0
2014-Nov-27 21:31N 35°21' E 139°41'0 0.1
2014-Nov-27 20:31N 35°21' E 139°41'0 0.0
2014-Nov-27 19:28N 35°21' E 139°41'0 0.0
2014-Nov-27 18:31N 35°21' E 139°41'0 0.1
2014-Nov-27 17:31N 35°21' E 139°41'0 0.0
2014-Nov-27 16:31N 35°21' E 139°41'0 0.0
2014-Nov-27 15:31N 35°21' E 139°41'0 0.1
2014-Nov-27 14:31N 35°21' E 139°41'0 0.0
2014-Nov-27 13:31N 35°21' E 139°41'0 0.0
2014-Nov-27 12:31N 35°21' E 139°41'0 0.0
2014-Nov-27 11:31N 35°21' E 139°41'0 0.0
2014-Nov-27 10:31N 35°21' E 139°41'0 0.0
2014-Nov-27 09:31N 35°21' E 139°41'0 0.0
2014-Nov-27 08:31N 35°21' E 139°41'0 0.0
2014-Nov-27 07:31N 35°21' E 139°41'0 0.0
2014-Nov-27 06:31N 35°21' E 139°41'0 0.0
2014-Nov-27 05:31N 35°21' E 139°41'0 0.1
2014-Nov-27 04:33N 35°21' E 139°41'3 2.6
2014-Nov-27 03:33N 35°23' E 139°39'0 0.0
2014-Nov-27 02:33N 35°23' E 139°39'0 0.0
2014-Nov-27 01:33N 35°23' E 139°39'0 0.0
2014-Nov-27 00:32N 35°23' E 139°39'0 0.0
2014-Nov-26 23:34N 35°23' E 139°39'0 0.4
2014-Nov-26 22:33N 35°23' E 139°40'3 2.8
2014-Nov-26 21:31N 35°21' E 139°41'0 0.1
2014-Nov-26 20:31N 35°21' E 139°41'0 0.1
2014-Nov-26 19:31N 35°21' E 139°41'0 0.0
2014-Nov-26 18:31N 35°21' E 139°41'0 0.1
2014-Nov-26 17:31N 35°21' E 139°41'0 0.0
2014-Nov-26 16:28N 35°21' E 139°41'0 0.0
2014-Nov-26 15:33N 35°21' E 139°41'0 0.0
2014-Nov-26 14:33N 35°21' E 139°41'0 0.0
2014-Nov-26 13:34N 35°21' E 139°41'0 0.0
2014-Nov-26 12:33N 35°21' E 139°41'0 0.0
2014-Nov-26 11:33N 35°21' E 139°41'0 0.0
2014-Nov-26 10:33N 35°21' E 139°41'0 0.0
2014-Nov-26 09:32N 35°21' E 139°41'0 0.0
2014-Nov-26 08:32N 35°21' E 139°41'0 0.0
2014-Nov-26 07:32N 35°21' E 139°41'0 0.0
2014-Nov-26 06:32N 35°21' E 139°41'0 0.0
2014-Nov-26 05:32N 35°21' E 139°41'0 0.0
2014-Nov-26 04:29N 35°21' E 139°41'0 0.0
2014-Nov-26 03:32N 35°21' E 139°41'0 0.0
2014-Nov-26 02:32N 35°21' E 139°41'0 0.0
2014-Nov-26 01:32N 35°21' E 139°41'0 0.0
2014-Nov-26 00:32N 35°21' E 139°41'0 0.0
2014-Nov-25 23:32N 35°21' E 139°41'0 0.0
2014-Nov-25 22:32N 35°21' E 139°41'0 0.1
2014-Nov-25 21:32N 35°21' E 139°41'0 0.0
2014-Nov-25 20:32N 35°21' E 139°41'4 4.3
2014-Nov-25 19:33N 35°18' E 139°45'1010.4
2014-Nov-25 18:33N 35°07' E 139°45'3 0.1
2014-Nov-24 07:20N 35°11' E 139°46'810.5
2014-Nov-24 06:33N 35°19' E 139°44'6 5.9
2014-Nov-24 05:33N 35°23' E 139°39'0 0.0
2014-Nov-24 04:32N 35°23' E 139°39'0 0.0
2014-Nov-24 03:32N 35°23' E 139°39'0 0.0
2014-Nov-24 02:32N 35°23' E 139°39'0 0.0
2014-Nov-24 01:31N 35°23' E 139°39'0 0.0
2014-Nov-24 00:32N 35°23' E 139°39'0 0.0
2014-Nov-23 23:32N 35°23' E 139°39'0 0.4
2014-Nov-23 22:33N 35°23' E 139°39'3 2.6
2014-Nov-23 21:33N 35°21' E 139°41'0 0.0
2014-Nov-23 20:33N 35°21' E 139°41'0 0.1
2014-Nov-23 19:33N 35°21' E 139°41'0 0.0
2014-Nov-23 18:27N 35°21' E 139°41'0 0.0
2014-Nov-23 17:33N 35°21' E 139°41'0 0.0
2014-Nov-23 16:33N 35°21' E 139°41'0 0.1
2014-Nov-23 15:33N 35°21' E 139°41'0 0.0
2014-Nov-23 14:33N 35°21' E 139°41'0 0.1
2014-Nov-23 13:33N 35°21' E 139°41'0 0.0
2014-Nov-23 12:33N 35°21' E 139°41'0 0.0
2014-Nov-23 11:33N 35°21' E 139°41'0 0.0
2014-Nov-23 10:33N 35°21' E 139°41'0 0.0
2014-Nov-23 09:33N 35°21' E 139°41'0 0.0
2014-Nov-23 08:30N 35°21' E 139°41'0 0.0
2014-Nov-23 07:33N 35°21' E 139°41'0 0.1
2014-Nov-23 06:33N 35°21' E 139°41'0 0.0
2014-Nov-23 05:33N 35°21' E 139°41'0 0.0
2014-Nov-23 04:33N 35°21' E 139°41'0 0.1
2014-Nov-23 03:33N 35°21' E 139°41'0 0.1
2014-Nov-23 02:33N 35°21' E 139°41'0 0.0
2014-Nov-23 01:33N 35°21' E 139°41'0 0.0
2014-Nov-23 00:33N 35°21' E 139°41'0 0.0
2014-Nov-22 23:33N 35°21' E 139°41'0 0.0
2014-Nov-22 22:33N 35°21' E 139°41'0 0.0
2014-Nov-22 21:30N 35°21' E 139°41'0 0.0
2014-Nov-22 20:33N 35°21' E 139°41'0 0.0
2014-Nov-22 19:33N 35°21' E 139°41'0 0.0
2014-Nov-22 18:30N 35°21' E 139°41'0 0.0
2014-Nov-22 17:30N 35°21' E 139°41'0 0.1
2014-Nov-22 16:33N 35°21' E 139°41'0 0.0
2014-Nov-22 15:30N 35°21' E 139°41'0 0.1
2014-Nov-22 14:33N 35°21' E 139°41'0 0.0
2014-Nov-22 13:33N 35°21' E 139°41'0 0.0
2014-Nov-22 12:33N 35°21' E 139°41'0 0.0
2014-Nov-22 11:33N 35°21' E 139°41'0 0.0
2014-Nov-22 10:33N 35°21' E 139°41'0 0.1
2014-Nov-22 09:33N 35°21' E 139°41'0 0.0
2014-Nov-22 08:33N 35°21' E 139°41'0 0.1
2014-Nov-22 07:33N 35°21' E 139°41'0 0.0
2014-Nov-22 06:21N 35°21' E 139°41'0 0.0
2014-Nov-22 05:21N 35°21' E 139°41'0 0.0
2014-Nov-22 04:33N 35°21' E 139°41'0 0.0
2014-Nov-22 03:32N 35°21' E 139°41'0 0.0
2014-Nov-22 02:33N 35°21' E 139°41'0 0.0
2014-Nov-22 01:33N 35°21' E 139°41'0 0.0
2014-Nov-22 00:32N 35°21' E 139°41'0 0.0
2014-Nov-21 23:32N 35°21' E 139°41'0 0.0
2014-Nov-21 22:33N 35°21' E 139°41'0 0.0
2014-Nov-21 21:32N 35°21' E 139°41'0 0.0
2014-Nov-21 20:33N 35°21' E 139°41'0 0.0
2014-Nov-21 19:32N 35°21' E 139°41'0 0.1
2014-Nov-21 18:32N 35°21' E 139°41'0 0.0
2014-Nov-21 17:33N 35°21' E 139°41'0 0.0
2014-Nov-21 16:32N 35°21' E 139°41'0 0.0
2014-Nov-21 15:32N 35°21' E 139°41'0 0.1
2014-Nov-21 14:32N 35°21' E 139°41'0 0.0
2014-Nov-21 13:32N 35°21' E 139°41'0 0.0
2014-Nov-21 12:32N 35°21' E 139°41'0 0.0
2014-Nov-21 11:32N 35°21' E 139°41'0 0.0
2014-Nov-21 10:32N 35°21' E 139°41'0 0.0
2014-Nov-21 09:32N 35°21' E 139°41'0 0.0
2014-Nov-21 08:32N 35°21' E 139°41'0 0.0
2014-Nov-21 07:32N 35°21' E 139°41'0 0.1
2014-Nov-21 06:32N 35°21' E 139°41'3 2.5
2014-Nov-21 05:31N 35°23' E 139°39'0 0.0
2014-Nov-21 04:31N 35°23' E 139°39'0 0.0
2014-Nov-21 03:31N 35°23' E 139°39'0 0.0
2014-Nov-21 02:31N 35°23' E 139°39'0 0.0
2014-Nov-21 01:31N 35°23' E 139°39'0 0.0
2014-Nov-21 00:31N 35°23' E 139°39'0 0.0
2014-Nov-20 23:31N 35°23' E 139°39'0 0.4
2014-Nov-20 22:33N 35°24' E 139°39'3 2.8
2014-Nov-20 21:32N 35°21' E 139°41'0 0.0
2014-Nov-20 20:32N 35°21' E 139°41'0 0.0
2014-Nov-20 19:32N 35°21' E 139°41'0 0.0
2014-Nov-20 18:32N 35°21' E 139°41'0 0.1
2014-Nov-20 17:32N 35°21' E 139°41'0 0.1
2014-Nov-20 16:32N 35°21' E 139°41'0 0.0
2014-Nov-20 15:32N 35°21' E 139°41'0 0.0
2014-Nov-20 14:32N 35°21' E 139°41'0 0.0
2014-Nov-20 13:32N 35°21' E 139°41'0 0.0
2014-Nov-20 12:32N 35°21' E 139°41'0 0.0
2014-Nov-20 11:32N 35°21' E 139°41'0 0.0
2014-Nov-20 10:32N 35°21' E 139°41'0 0.0
2014-Nov-20 09:32N 35°21' E 139°41'0 0.0
2014-Nov-20 08:29N 35°21' E 139°41'0 0.0
2014-Nov-20 07:32N 35°21' E 139°41'0 0.0
2014-Nov-20 06:32N 35°21' E 139°41'0 0.0
2014-Nov-20 05:29N 35°21' E 139°41'0 0.1
2014-Nov-20 04:32N 35°21' E 139°41'0 0.0
2014-Nov-20 03:32N 35°21' E 139°41'0 0.0
2014-Nov-20 02:32N 35°21' E 139°41'0 0.0
2014-Nov-20 01:32N 35°21' E 139°41'0 0.0
2014-Nov-20 00:32N 35°21' E 139°41'9 0.2
2014-Nov-18 08:23N 35°13' E 139°46'1011.9
2014-Nov-18 07:33N 35°22' E 139°41'2 2.0
2014-Nov-18 06:33N 35°23' E 139°39'0 0.0
2014-Nov-18 05:33N 35°23' E 139°39'0 0.0
2014-Nov-18 04:33N 35°23' E 139°39'0 0.0
2014-Nov-18 03:33N 35°23' E 139°39'0 0.0
2014-Nov-18 02:33N 35°23' E 139°39'0 0.0
2014-Nov-18 01:33N 35°23' E 139°39'0 0.0
2014-Nov-18 00:33N 35°23' E 139°39'0 0.0
2014-Nov-17 23:33N 35°23' E 139°39'  

Dump ship's entire track history